Terminal Aerodrome Forecast
Issued by NWS Boston, MA

Current Version | Previous Version | Text Only | Print | Product List | Glossary On
Versions: 1 2 3 4 5 6 7 8 9 10 11 12 13 14 15 16 17 18 19 20 21 22 23 24 25 26 27 28 29 30 31 32 33 34 35 36 37 38 39 40 41 42 43 44
000
FTUS41 KBOX 252004 AAA
TAFBDL
TAF AMD
KBDL 252004Z 2520/2624 26006KT P6SM FEW060
     FM260100 21005KT P6SM FEW250
     FM260800 00000KT P6SM FEW200
     FM261400 21006KT P6SM FEW140
     FM261700 21011KT P6SM SCT120
     FM262200 20011G21KT P6SM BKN050=

USA.gov is the U.S. government's official web portal to all federal, state and local government web resources and services.